Ellison Bay, Wisconsin
Current Conditions -  °F | °C
As of 11:15 AM on Thursday 27 Nov 2014 (Local Time) from KMNM Reporting Station
Clear Clear  
Wind Chill:   Ceiling: Unl
Heat Index: 16°   Visibility: 10mi
Dew Point:   Wind: 10mph
Humidity: 58%   Direction: 350°N
Pressure: 30.32"   Gusts: 16mph
Location:  45.25°N, 87.08°W
Report Text: KMNM 271715Z AUTO 35009G14KT 10SM CLR M09/M16 A3032 RMK AO1
Loading
Personal Weather Stations






























Interactive Weather Map New forecast layout! Learn more

10-Day Weather Forecast

Advertisements
Track Severe Weather on mobile